Time;durP1;ratioP1;P1;durP2;ratioP2;P2;SDS_P1;SDS_P2;PMS_P1;PMS_P2;Temp;Humidity;BMP_temperature;BMP_pressure;BME280_temperature;BME280_humidity;BME280_pressure;Samples;Min_cycle;Max_cycle;Signal;HPM_P1;HPM_P2
2021/03/16 07:04:43;;;;;;;4.60;2.95;;;;;;;24.56;40.89;98794.30;1839391;77;22835;-63
2021/03/16 07:07:10;;;;;;;9.48;4.28;;;;;;;24.55;40.92;98803.83;1810065;77;21186;-60
2021/03/16 07:10:56;;;;;;;10.10;3.45;;;;;;;24.53;40.84;98804.00;1796768;78;23573;-67
2021/03/16 07:13:22;;;;;;;4.90;2.90;;;;;;;24.40;40.85;98800.00;1761010;80;20953;-65
2021/03/16 07:15:48;;;;;;;3.37;2.40;;;;;;;24.27;40.91;98807.89;1769739;80;22506;-66
2021/03/16 07:18:14;;;;;;;4.80;2.90;;;;;;;24.13;41.02;98814.73;1764085;79;21424;-63
2021/03/16 07:20:40;;;;;;;4.72;2.77;;;;;;;24.08;41.24;98820.06;1766584;80;21126;-62
2021/03/16 07:23:06;;;;;;;5.17;2.77;;;;;;;24.14;41.33;98822.66;1767089;80;21559;-62
2021/03/16 07:25:31;;;;;;;3.25;2.42;;;;;;;24.21;41.28;98811.41;1765366;80;20990;-66
2021/03/16 07:27:57;;;;;;;12.30;4.60;;;;;;;24.23;41.23;98823.72;1758763;79;22461;-68
2021/03/16 07:30:25;;;;;;;13.03;4.62;;;;;;;24.19;41.21;98820.13;1723083;80;95182;-67
2021/03/16 07:32:53;;;;;;;7.35;3.05;;;;;;;24.13;41.27;98823.86;1671536;83;22313;-67
2021/03/16 07:35:19;;;;;;;4.78;2.50;;;;;;;24.03;41.33;98825.98;1674871;83;21140;-67
2021/03/16 07:37:45;;;;;;;5.25;2.42;;;;;;;23.97;41.47;98821.98;1671393;83;21038;-67
2021/03/16 07:40:14;;;;;;;3.60;2.77;;;;;;;24.00;41.53;98817.04;1671152;84;21595;-66
2021/03/16 07:42:40;;;;;;;3.80;2.25;;;;;;;24.05;41.51;98822.83;1669645;84;21513;-66
2021/03/16 07:45:08;;;;;;;4.60;2.52;;;;;;;24.03;41.45;98830.14;1674581;83;21042;-66
2021/03/16 07:47:52;;;;;;;10.10;4.60;;;;;;;24.05;41.42;98832.55;1816454;74;88170;-65
2021/03/16 07:50:37;;;;;;;4.60;2.12;;;;;;;23.94;41.47;98833.05;1743115;79;26092;-64
2021/03/16 07:54:07;;;;;;;3.65;2.75;;;;;;;23.88;41.60;98838.78;1756948;76;78161;-66
2021/03/16 07:56:35;;;;;;;2.95;2.17;;;;;;;23.86;41.69;98838.36;1694498;83;21165;-65
2021/03/16 07:59:03;;;;;;;3.58;2.27;;;;;;;23.94;41.65;98846.35;1695119;83;21924;-65
2021/03/16 08:01:29;;;;;;;2.92;2.20;;;;;;;24.03;41.55;98839.06;1693257;83;21079;-67
2021/03/16 08:04:08;;;;;;;3.15;2.35;;;;;;;24.05;41.42;98842.27;1692348;83;21164;-66
2021/03/16 08:06:36;;;;;;;2.72;2.10;;;;;;;23.99;41.35;98846.58;1653003;85;21117;-66
2021/03/16 08:09:06;;;;;;;5.00;3.10;;;;;;;23.90;41.35;98844.73;1685257;83;21419;-67
2021/03/16 08:11:40;;;;;;;3.70;2.08;;;;;;;23.83;41.44;98846.08;1686917;83;21442;-66
2021/03/16 08:14:08;;;;;;;2.87;1.90;;;;;;;23.85;41.56;98852.06;1688044;83;21234;-66
2021/03/16 08:16:40;;;;;;;4.28;2.30;;;;;;;23.95;41.58;98854.09;1649623;85;21519;-67
2021/03/16 08:19:15;;;;;;;4.92;2.20;;;;;;;24.02;41.48;98861.08;1646898;85;21171;-67
2021/03/16 08:21:43;;;;;;;4.00;2.25;;;;;;;24.02;41.43;98859.10;1681832;83;21252;-67
2021/03/16 08:24:13;;;;;;;3.90;2.72;;;;;;;23.98;41.41;98856.89;1648708;85;21202;-67
2021/03/16 08:26:53;;;;;;;6.03;2.33;;;;;;;23.93;41.45;98863.42;1649080;83;124617;-68
2021/03/16 08:29:26;;;;;;;2.72;1.72;;;;;;;23.87;41.51;98862.18;1703678;83;454013;-67
2021/03/16 08:31:57;;;;;;;2.87;1.80;;;;;;;23.85;41.66;98868.73;1702720;82;21171;-67
2021/03/16 08:34:25;;;;;;;4.65;2.00;;;;;;;23.92;41.71;98866.79;1712588;81;21129;-59
2021/03/16 08:36:52;;;;;;;4.55;1.90;;;;;;;23.98;41.64;98870.78;1698652;82;21641;-67
2021/03/16 08:39:27;;;;;;;2.98;1.70;;;;;;;24.01;41.57;98870.62;1699680;82;21239;-67
2021/03/16 08:41:58;;;;;;;4.00;1.98;;;;;;;23.98;41.54;98874.95;1711716;81;21533;-67
2021/03/16 08:44:26;;;;;;;4.08;2.02;;;;;;;23.90;41.55;98871.92;1712608;82;21181;-67
2021/03/16 08:46:53;;;;;;;3.87;2.17;;;;;;;23.82;41.61;98873.64;1698371;82;21254;-67
2021/03/16 08:49:20;;;;;;;2.90;1.90;;;;;;;23.78;41.73;98870.84;1712420;81;21594;-68
2021/03/16 08:51:47;;;;;;;2.65;1.60;;;;;;;23.86;41.81;98870.30;1714051;81;21187;-67
2021/03/16 08:54:25;;;;;;;3.83;1.72;;;;;;;23.96;41.75;98872.36;1692348;82;21215;-67
2021/03/16 08:56:52;;;;;;;2.47;1.80;;;;;;;23.99;41.65;98878.53;1691509;83;21597;-64
2021/03/16 08:59:20;;;;;;;3.33;1.95;;;;;;;23.98;41.62;98876.92;1693578;83;21582;-61
2021/03/16 09:01:50;;;;;;;4.47;2.20;;;;;;;23.95;41.62;98882.67;1692446;82;20969;-60
2021/03/16 09:04:18;;;;;;;3.92;1.62;;;;;;;23.86;41.63;98882.20;1688780;83;21203;-62
2021/03/16 09:06:46;;;;;;;3.67;2.10;;;;;;;23.77;41.75;98877.57;1694693;82;21231;-61
2021/03/16 09:09:14;;;;;;;2.95;1.50;;;;;;;23.76;41.93;98883.53;1693061;82;21230;-60
2021/03/16 09:11:42;;;;;;;2.15;1.47;;;;;;;23.82;41.99;98887.53;1692228;83;21184;-60
2021/03/16 09:14:17;;;;;;;3.12;1.65;;;;;;;23.88;41.96;98884.61;1692590;82;22023;-60
2021/03/16 09:16:47;;;;;;;3.08;1.55;;;;;;;23.87;41.94;98886.59;1688099;82;21198;-60
2021/03/16 09:19:20;;;;;;;4.35;1.60;;;;;;;23.82;41.94;98890.30;1688357;83;21225;-61
2021/03/16 09:22:02;;;;;;;4.25;1.70;;;;;;;23.75;42.02;98893.84;1695837;83;21578;-61
2021/03/16 09:24:30;;;;;;;30.55;7.62;;;;;;;23.65;42.14;98898.11;1693540;82;21938;-61
2021/03/16 09:27:03;;;;;;;14.00;4.72;;;;;;;23.59;42.32;98895.47;1692556;83;21201;-59
2021/03/16 09:29:32;;;;;;;5.42;2.22;;;;;;;23.63;42.46;98901.08;1689240;83;21231;-60
2021/03/16 09:32:08;;;;;;;2.70;1.55;;;;;;;23.66;42.45;98894.75;1693430;82;21118;-60
2021/03/16 09:34:39;;;;;;;2.77;1.75;;;;;;;23.64;42.45;98896.52;1689324;83;21230;-59
2021/03/16 09:37:12;;;;;;;1.95;1.50;;;;;;;23.59;42.51;98895.47;1694110;82;21237;-59
2021/03/16 09:39:38;;;;;;;5.53;1.80;;;;;;;23.52;42.60;98896.80;1712318;81;21582;-60
2021/03/16 09:42:06;;;;;;;3.02;1.62;;;;;;;23.44;42.74;98899.31;1721411;81;21215;-60
2021/03/16 09:44:42;;;;;;;2.87;2.10;;;;;;;23.48;42.92;98899.34;1717465;82;21198;-61
2021/03/16 09:47:09;;;;;;;3.58;1.60;;;;;;;23.57;42.96;98899.82;1715516;81;21293;-60
2021/03/16 09:49:40;;;;;;;2.35;1.87;;;;;;;23.63;42.89;98907.43;1715070;81;21149;-60
2021/03/16 09:52:12;;;;;;;2.92;1.60;;;;;;;23.64;42.89;98911.78;1721022;81;107365;-61
2021/03/16 09:54:45;;;;;;;6.12;2.55;;;;;;;23.64;42.89;98909.00;1735661;80;125022;-63
2021/03/16 09:57:14;;;;;;;4.58;1.98;;;;;;;23.60;42.92;98912.34;1708120;82;21241;-64
2021/03/16 09:59:43;;;;;;;2.95;1.95;;;;;;;23.54;42.99;98915.28;1712542;82;21243;-60
2021/03/16 10:02:10;;;;;;;5.20;1.65;;;;;;;23.48;43.13;98922.34;1721824;81;21160;-60
2021/03/16 10:04:48;;;;;;;2.45;1.75;;;;;;;23.52;43.29;98914.84;1720557;81;22422;-58
2021/03/16 10:07:30;;;;;;;3.95;1.90;;;;;;;23.60;42.82;98919.28;1718672;81;21245;-58
2021/03/16 10:10:26;;;;;;;3.00;1.75;;;;;;;23.63;42.52;98926.06;1715746;81;21113;-57
2021/03/16 10:13:02;;;;;;;2.80;1.70;;;;;;;23.59;42.18;98926.63;1715286;81;21231;-59
2021/03/16 10:15:33;;;;;;;2.47;1.95;;;;;;;23.53;41.98;98925.36;1702969;82;22167;-60
2021/03/16 10:18:02;;;;;;;2.58;1.87;;;;;;;23.44;41.87;98929.84;1720619;81;21291;-60
2021/03/16 10:20:32;;;;;;;1.98;1.72;;;;;;;23.36;41.83;98928.14;1718679;81;21207;-60
2021/03/16 10:23:04;;;;;;;2.90;2.00;;;;;;;23.39;41.86;98928.76;1715518;81;21227;-60
2021/03/16 10:25:32;;;;;;;2.27;1.50;;;;;;;23.47;41.72;98931.84;1724207;81;21151;-60
2021/03/16 10:28:07;;;;;;;2.52;1.70;;;;;;;23.52;41.54;98937.64;1721660;82;21281;-60
2021/03/16 10:30:42;;;;;;;2.52;1.67;;;;;;;23.50;41.42;98943.59;1715792;81;21201;-58
2021/03/16 10:33:09;;;;;;;2.27;1.60;;;;;;;23.46;41.37;98942.77;1710011;82;21217;-59
2021/03/16 10:35:38;;;;;;;2.45;1.92;;;;;;;23.40;41.33;98944.83;1698453;82;21185;-58
2021/03/16 10:38:05;;;;;;;1.95;1.60;;;;;;;23.32;41.36;98946.73;1717651;81;21353;-58
2021/03/16 10:40:33;;;;;;;6.75;2.30;;;;;;;23.31;41.47;98945.72;1719346;81;21136;-64
2021/03/16 10:43:00;;;;;;;4.87;1.62;;;;;;;23.40;41.47;98944.83;1718041;81;21558;-64
2021/03/16 10:45:27;;;;;;;3.10;1.47;;;;;;;23.41;41.54;98938.11;1720267;81;21436;-64
2021/03/16 10:47:53;;;;;;;3.98;1.65;;;;;;;23.41;41.55;98943.66;1722140;81;21436;-64
2021/03/16 10:50:21;;;;;;;2.40;1.60;;;;;;;23.38;41.60;98945.20;1717364;81;21147;-64
2021/03/16 10:52:48;;;;;;;3.50;2.20;;;;;;;23.35;41.61;98942.39;1723620;81;21187;-64
2021/03/16 10:55:14;;;;;;;6.20;1.70;;;;;;;23.30;41.63;98942.76;1702499;82;22564;-64
2021/03/16 10:57:41;;;;;;;4.22;1.65;;;;;;;23.28;41.69;98942.33;1696784;82;21107;-64
2021/03/16 11:00:28;;;;;;;4.15;1.45;;;;;;;23.32;41.77;98941.19;1697304;83;21202;-64
2021/03/16 11:02:55;;;;;;;2.70;1.42;;;;;;;23.36;41.75;98938.44;1721371;82;21224;-64
2021/03/16 11:05:22;;;;;;;1.67;1.40;;;;;;;23.37;41.70;98948.38;1725711;82;21433;-64
2021/03/16 11:07:48;;;;;;;3.20;1.40;;;;;;;23.34;41.65;98947.14;1714450;82;21200;-64
2021/03/16 11:10:16;;;;;;;1.67;1.22;;;;;;;23.30;41.63;98944.91;1718101;82;21837;-64
2021/03/16 11:12:42;;;;;;;1.82;1.40;;;;;;;23.25;41.63;98945.87;1720274;82;21187;-64
2021/03/16 11:15:10;;;;;;;2.72;1.60;;;;;;;23.23;41.70;98943.46;1717087;82;21639;-64
2021/03/16 11:17:36;;;;;;;1.90;1.37;;;;;;;23.28;41.76;98942.33;1725687;82;21091;-64
2021/03/16 11:20:04;;;;;;;3.35;1.60;;;;;;;23.33;41.71;98945.56;1712335;82;21161;-64
2021/03/16 11:22:31;;;;;;;2.17;1.25;;;;;;;23.33;41.66;98941.41;1735006;82;21178;-65
2021/03/16 11:24:57;;;;;;;4.30;1.22;;;;;;;23.32;41.62;98948.13;1731602;82;21158;-65
2021/03/16 11:27:24;;;;;;;2.05;1.25;;;;;;;23.28;41.54;98943.13;1730452;82;21779;-64
2021/03/16 11:29:50;;;;;;;2.20;1.22;;;;;;;23.20;41.54;98936.70;1726482;82;21552;-64
2021/03/16 11:32:16;;;;;;;1.27;1.05;;;;;;;23.17;41.61;98943.58;1726644;82;21720;-64
2021/03/16 11:34:43;;;;;;;3.00;1.30;;;;;;;23.17;41.71;98941.61;1732560;82;21185;-64
2021/03/16 11:37:09;;;;;;;2.15;1.00;;;;;;;23.20;41.67;98942.26;1733024;82;21599;-64
2021/03/16 11:39:35;;;;;;;2.80;1.30;;;;;;;23.21;41.65;98942.44;1733890;82;21575;-64
2021/03/16 11:42:02;;;;;;;1.45;1.12;;;;;;;23.18;41.63;98936.86;1728335;82;21613;-65
2021/03/16 11:44:29;;;;;;;1.65;1.15;;;;;;;23.14;41.60;98940.98;1721621;82;21486;-64
2021/03/16 11:46:55;;;;;;;1.92;1.20;;;;;;;23.06;41.60;98935.16;1724874;83;21245;-64
2021/03/16 11:49:21;;;;;;;1.60;1.27;;;;;;;23.05;41.68;98937.70;1728443;82;21217;-64
2021/03/16 11:51:48;;;;;;;1.77;1.40;;;;;;;23.11;41.78;98935.41;1724075;82;21217;-64
2021/03/16 11:54:15;;;;;;;1.92;1.30;;;;;;;23.19;41.77;98931.53;1722832;82;21533;-64
2021/03/16 11:56:42;;;;;;;1.27;1.00;;;;;;;23.26;41.69;98927.44;1729542;81;21224;-64
2021/03/16 11:59:08;;;;;;;1.52;1.15;;;;;;;23.29;41.64;98921.14;1724794;82;21269;-64
2021/03/16 12:01:35;;;;;;;2.42;1.27;;;;;;;23.29;41.59;98919.76;1746142;80;21122;-64
2021/03/16 12:04:01;;;;;;;3.75;1.27;;;;;;;23.28;41.54;98921.52;1746756;80;21189;-64
2021/03/16 12:06:27;;;;;;;1.77;1.20;;;;;;;23.31;41.64;98925.70;1733916;81;21122;-64
2021/03/16 12:08:54;;;;;;;2.12;1.15;;;;;;;23.42;41.71;98930.80;1742455;80;21292;-64
2021/03/16 12:11:21;;;;;;;2.60;1.40;;;;;;;23.55;41.68;98927.18;1734902;81;21246;-64
2021/03/16 12:13:48;;;;;;;2.05;0.95;;;;;;;23.63;41.56;98921.31;1743747;80;21197;-63
2021/03/16 12:16:14;;;;;;;1.47;0.93;;;;;;;23.68;41.48;98923.53;1742145;81;21125;-64
2021/03/16 12:18:41;;;;;;;3.20;1.15;;;;;;;23.66;41.40;98930.84;1750454;80;21217;-64
2021/03/16 12:21:07;;;;;;;1.77;1.10;;;;;;;23.62;41.36;98920.30;1735203;81;21203;-64
2021/03/16 12:23:34;;;;;;;1.00;0.88;;;;;;;23.56;41.37;98926.78;1743000;80;21205;-64
2021/03/16 12:26:00;;;;;;;1.55;1.15;;;;;;;23.55;41.46;98932.11;1740614;80;21221;-64
2021/03/16 12:28:26;;;;;;;1.70;1.20;;;;;;;23.62;41.51;98932.20;1741997;80;21179;-64
2021/03/16 12:30:53;;;;;;;2.85;1.10;;;;;;;23.67;41.48;98929.66;1733561;81;21190;-64
2021/03/16 12:33:21;;;;;;;3.17;1.25;;;;;;;23.68;41.44;98929.08;1737710;81;22144;-64
2021/03/16 12:35:47;;;;;;;1.87;1.15;;;;;;;23.66;41.40;98929.45;1736272;80;21225;-63
2021/03/16 12:38:14;;;;;;;1.50;1.00;;;;;;;23.60;41.37;98929.00;1738270;80;21149;-64
2021/03/16 12:40:40;;;;;;;2.00;1.07;;;;;;;23.56;41.40;98934.30;1743196;80;21193;-64
2021/03/16 12:43:07;;;;;;;2.10;1.00;;;;;;;23.58;41.51;98931.38;1741987;81;21098;-64
2021/03/16 12:45:33;;;;;;;2.17;1.02;;;;;;;23.63;41.53;98939.36;1731386;81;21272;-63
2021/03/16 12:48:00;;;;;;;1.60;1.07;;;;;;;23.67;41.51;98938.00;1705817;82;21552;-64
2021/03/16 12:50:27;;;;;;;3.83;1.30;;;;;;;23.67;41.45;98947.72;1744354;81;21511;-64
2021/03/16 12:52:53;;;;;;;4.67;1.75;;;;;;;23.63;41.41;98944.91;1739454;81;21197;-65
2021/03/16 12:55:20;;;;;;;4.47;2.20;;;;;;;23.60;41.43;98947.04;1755681;80;21437;-64
2021/03/16 12:57:47;;;;;;;4.67;2.20;;;;;;;23.59;41.53;98945.44;1745928;81;21313;-63
2021/03/16 13:00:15;;;;;;;7.50;2.80;;;;;;;23.67;41.69;98947.72;1739093;80;21173;-63
2021/03/16 13:02:41;;;;;;;6.15;2.40;;;;;;;23.75;41.75;98945.20;1731086;81;21196;-63
2021/03/16 13:05:12;;;;;;;7.30;2.92;;;;;;;23.80;41.78;98949.02;1719690;81;21486;-62
2021/03/16 13:07:38;;;;;;;5.80;2.95;;;;;;;23.81;41.84;98956.73;1725738;81;21597;-64
2021/03/16 13:10:06;;;;;;;60.80;18.17;;;;;;;23.79;41.91;98956.34;1680076;84;21579;-63
2021/03/16 13:12:33;;;;;;;10.60;4.37;;;;;;;23.75;41.73;98952.73;1734297;81;21633;-63
2021/03/16 13:14:59;;;;;;;9.80;3.87;;;;;;;23.74;41.43;98953.32;1732756;81;21161;-60
2021/03/16 13:17:25;;;;;;;7.42;3.40;;;;;;;23.83;41.39;98955.78;1731399;81;21210;-60
2021/03/16 13:19:52;;;;;;;8.40;3.47;;;;;;;23.89;41.20;98954.25;1735343;81;21218;-60
2021/03/16 13:22:18;;;;;;;6.33;3.22;;;;;;;23.94;41.20;98958.84;1715170;81;21234;-59
2021/03/16 13:24:45;;;;;;;8.03;3.12;;;;;;;23.95;41.07;98957.67;1721534;81;21091;-59
2021/03/16 13:27:15;;;;;;;7.37;2.90;;;;;;;23.96;40.88;98958.47;1718067;81;21221;-59
2021/03/16 13:29:41;;;;;;;;;;;;;;;23.88;40.77;98957.63;1732065;82;21134;-60
2021/03/16 13:32:09;;;;;;;5.67;2.80;;;;;;;23.84;40.74;98958.77;1729149;81;20239;-60
2021/03/16 13:34:36;;;;;;;5.70;2.98;;;;;;;23.83;40.78;98957.97;1734010;81;21281;-60
2021/03/16 13:37:03;;;;;;;3.95;2.72;;;;;;;23.85;40.72;98961.14;1728363;81;21154;-61
2021/03/16 13:39:29;;;;;;;5.45;2.58;;;;;;;23.87;40.57;98960.19;1724330;81;21028;-61
2021/03/16 13:41:56;;;;;;;4.00;2.65;;;;;;;23.88;40.29;98960.98;1728407;81;21226;-61
2021/03/16 13:44:22;;;;;;;4.80;2.85;;;;;;;23.84;40.01;98953.22;1728178;82;21206;-61
2021/03/16 13:46:49;;;;;;;4.05;2.65;;;;;;;23.82;39.91;98959.73;1722390;81;21386;-62
2021/03/16 13:49:15;;;;;;;4.00;2.37;;;;;;;23.77;39.68;98953.94;1734671;81;21497;-63
2021/03/16 13:51:42;;;;;;;4.87;2.75;;;;;;;23.81;39.59;98963.09;1733369;82;21130;-62
2021/03/16 13:54:09;;;;;;;3.87;2.80;;;;;;;23.88;39.49;98958.21;1730697;82;21189;-63
2021/03/16 13:56:35;;;;;;;3.65;2.52;;;;;;;23.92;39.15;98959.03;1737260;82;21629;-63
2021/03/16 13:59:02;;;;;;;5.05;3.22;;;;;;;23.92;38.96;98958.45;1725695;81;21245;-63
2021/03/16 14:01:28;;;;;;;4.70;2.83;;;;;;;23.92;38.70;98956.26;1737316;81;21210;-62
2021/03/16 14:03:55;;;;;;;5.00;3.20;;;;;;;23.88;38.50;98960.98;1737184;81;21173;-62
2021/03/16 14:06:22;;;;;;;6.05;2.60;;;;;;;23.83;38.30;98961.33;1742545;81;21204;-62
2021/03/16 14:08:48;;;;;;;4.17;2.83;;;;;;;23.83;38.24;98963.52;1730894;81;20995;-62
2021/03/16 14:11:15;;;;;;;3.55;2.55;;;;;;;23.87;38.13;98960.77;1734687;82;21628;-62
2021/03/16 14:13:43;;;;;;;3.33;2.50;;;;;;;23.88;37.82;98966.54;1741085;81;21147;-62
2021/03/16 14:16:09;;;;;;;4.42;2.70;;;;;;;23.91;37.70;98967.16;1713227;81;21198;-62
2021/03/16 14:18:36;;;;;;;4.05;2.98;;;;;;;23.92;37.67;98970.14;1738388;81;21143;-63
2021/03/16 14:21:02;;;;;;;3.85;2.20;;;;;;;23.93;37.73;98967.58;1718274;80;21564;-63
2021/03/16 14:23:29;;;;;;;5.40;2.12;;;;;;;23.99;37.86;98971.58;1725870;80;21214;-62
2021/03/16 14:25:55;;;;;;;4.65;2.12;;;;;;;24.10;37.94;98965.54;1730883;81;21226;-62
2021/03/16 14:28:22;;;;;;;3.35;2.30;;;;;;;24.16;37.98;98968.18;1738557;80;21249;-59
2021/03/16 14:30:48;;;;;;;4.22;2.02;;;;;;;24.20;38.00;98973.17;1735397;81;21628;-59
2021/03/16 14:33:14;;;;;;;8.38;2.17;;;;;;;24.21;38.00;98971.19;1739414;81;21260;-61
2021/03/16 14:35:41;;;;;;;5.78;2.10;;;;;;;24.18;38.05;98967.22;1736185;81;21222;-60
2021/03/16 14:38:08;;;;;;;2.62;1.70;;;;;;;24.14;38.07;98969.91;1737735;81;21197;-60
2021/03/16 14:40:34;;;;;;;3.75;1.87;;;;;;;24.15;38.20;98976.30;1733992;81;21226;-61
2021/03/16 14:43:01;;;;;;;3.65;1.90;;;;;;;24.21;38.29;98981.72;1737791;81;21225;-61
2021/03/16 14:45:27;;;;;;;3.27;2.37;;;;;;;24.28;38.29;98984.54;1740029;80;21188;-60
2021/03/16 14:47:54;;;;;;;2.37;1.67;;;;;;;24.32;38.29;98985.95;1742653;81;21557;-60
2021/03/16 14:50:25;;;;;;;3.72;1.98;;;;;;;24.31;38.26;98982.41;1737560;80;21246;-60
2021/03/16 14:53:01;;;;;;;3.52;2.00;;;;;;;24.29;38.29;98987.53;1733962;81;21154;-61
2021/03/16 14:55:29;;;;;;;4.05;1.98;;;;;;;24.23;38.34;98982.12;1733821;81;21670;-61
2021/03/16 14:57:56;;;;;;;2.95;1.77;;;;;;;24.20;38.42;98986.27;1739651;81;21094;-61
2021/03/16 15:00:23;;;;;;;3.30;1.80;;;;;;;24.25;38.54;98992.27;1739865;81;21178;-61
2021/03/16 15:02:50;;;;;;;3.30;1.65;;;;;;;24.31;38.56;98991.33;1734690;81;21241;-61
2021/03/16 15:05:17;;;;;;;3.40;2.10;;;;;;;24.34;38.55;98993.33;1732576;81;21122;-61
2021/03/16 15:07:44;;;;;;;3.10;1.57;;;;;;;24.34;38.52;98998.30;1735315;81;21217;-61
2021/03/16 15:10:12;;;;;;;2.83;1.77;;;;;;;24.30;38.53;98998.06;1735192;81;21173;-61
2021/03/16 15:12:38;;;;;;;3.08;1.77;;;;;;;24.25;38.58;98999.22;1738751;81;22570;-60
2021/03/16 15:15:28;;;;;;;3.77;1.45;;;;;;;24.21;38.68;99002.56;1737066;81;21567;-61
2021/03/16 15:17:54;;;;;;;2.30;1.60;;;;;;;24.27;38.78;99005.20;1728799;81;21184;-61
2021/03/16 15:20:21;;;;;;;2.72;1.85;;;;;;;24.35;38.82;99005.45;1726850;81;21622;-61
2021/03/16 15:22:48;;;;;;;2.60;1.62;;;;;;;24.42;38.78;99011.65;1727721;81;21171;-61
2021/03/16 15:25:14;;;;;;;3.17;1.57;;;;;;;24.42;38.75;99010.26;1730882;81;22155;-61
2021/03/16 15:27:41;;;;;;;2.62;1.67;;;;;;;24.39;38.73;99009.06;1727852;81;21237;-61
2021/03/16 15:30:10;;;;;;;3.37;1.70;;;;;;;24.34;38.72;99009.41;1730013;81;21208;-61
2021/03/16 15:32:36;;;;;;;3.17;1.60;;;;;;;24.27;38.79;99010.77;1728381;81;21206;-61
2021/03/16 15:35:05;;;;;;;3.35;1.77;;;;;;;24.27;38.92;99013.54;1729089;81;21244;-61
2021/03/16 15:37:32;;;;;;;2.77;1.50;;;;;;;24.31;38.99;99014.95;1729923;81;21640;-61
2021/03/16 15:40:00;;;;;;;4.65;1.70;;;;;;;24.35;39.00;99013.80;1725332;81;21264;-61
2021/03/16 15:42:27;;;;;;;3.83;1.62;;;;;;;24.36;38.99;99014.56;1730266;81;21636;-60
2021/03/16 15:44:53;;;;;;;1.85;1.50;;;;;;;24.32;38.96;99018.72;1725550;81;21690;-60
2021/03/16 15:47:20;;;;;;;3.08;1.80;;;;;;;24.25;38.98;99019.25;1730999;81;21201;-60
2021/03/16 15:49:47;;;;;;;2.15;1.60;;;;;;;24.17;38.99;99022.58;1727819;81;21622;-60
2021/03/16 15:52:13;;;;;;;2.50;1.40;;;;;;;24.09;39.09;99022.28;1727823;81;21151;-60
2021/03/16 15:54:40;;;;;;;5.00;2.12;;;;;;;24.09;39.23;99028.64;1730493;81;21206;-60
2021/03/16 15:57:06;;;;;;;1.77;1.25;;;;;;;24.11;39.28;99026.84;1731749;81;21082;-61
2021/03/16 15:59:33;;;;;;;2.22;1.70;;;;;;;24.10;39.28;99025.27;1731155;81;21312;-60
2021/03/16 16:02:00;;;;;;;3.77;1.60;;;;;;;24.06;39.25;99032.16;1686115;83;21291;-60
2021/03/16 16:04:26;;;;;;;2.27;1.50;;;;;;;24.00;39.24;99035.69;1726747;81;21446;-61
2021/03/16 16:06:53;;;;;;;2.50;1.60;;;;;;;23.90;39.29;99038.56;1732081;81;21055;-59
2021/03/16 16:09:20;;;;;;;2.22;1.55;;;;;;;23.83;39.39;99037.70;1729824;81;21596;-60
2021/03/16 16:11:47;;;;;;;4.60;2.80;;;;;;;23.83;39.49;99038.50;1730384;81;21232;-60
2021/03/16 16:14:13;;;;;;;13.90;5.50;;;;;;;23.84;39.54;99036.53;1731044;81;22372;-60
2021/03/16 16:16:40;;;;;;;25.17;10.50;;;;;;;23.83;39.53;99046.03;1724674;81;21684;-60
2021/03/16 16:19:06;;;;;;;46.60;19.70;;;;;;;23.79;39.53;99049.37;1726339;81;21188;-60
2021/03/16 16:21:33;;;;;;;62.75;26.12;;;;;;;23.73;39.52;99045.33;1724544;81;21235;-60
2021/03/16 16:24:00;;;;;;;99.35;36.80;;;;;;;23.64;39.56;99047.02;1719035;81;21238;-62
2021/03/16 16:26:27;;;;;;;95.28;36.38;;;;;;;23.61;39.59;99042.23;1725963;81;22676;-65
2021/03/16 16:28:54;;;;;;;122.50;50.58;;;;;;;23.63;39.65;99050.41;1722647;81;21613;-64
2021/03/16 16:31:40;;;;;;;196.05;70.65;;;;;;;23.66;39.64;99044.09;1720153;81;21191;-66
2021/03/16 16:34:07;;;;;;;255.20;97.78;;;;;;;23.68;39.59;99049.23;1702656;83;21658;-63
2021/03/16 16:36:34;;;;;;;307.30;114.22;;;;;;;23.68;39.50;99054.02;1715864;83;21140;-62
2021/03/16 16:39:00;;;;;;;341.52;129.45;;;;;;;23.63;39.43;99052.38;1712450;82;21226;-63
2021/03/16 16:41:28;;;;;;;363.30;140.75;;;;;;;23.56;39.39;99054.47;1729628;81;21183;-69
2021/03/16 16:43:54;;;;;;;360.88;141.37;;;;;;;23.55;39.43;99056.26;1718238;81;21227;-66
2021/03/16 16:46:20;;;;;;;364.52;148.90;;;;;;;23.59;39.39;99060.64;1722788;81;21228;-66
2021/03/16 16:48:47;;;;;;;369.32;154.00;;;;;;;23.58;39.28;99062.44;1724822;81;21199;-61
2021/03/16 16:51:13;;;;;;;353.98;146.10;;;;;;;23.56;39.19;99070.33;1719936;81;21629;-61
2021/03/16 16:53:41;;;;;;;359.73;145.30;;;;;;;23.54;39.13;99067.15;1724415;81;21250;-62
2021/03/16 16:56:07;;;;;;;342.93;139.62;;;;;;;23.50;39.04;99075.44;1726076;81;21230;-63
2021/03/16 16:58:34;;;;;;;330.52;134.03;;;;;;;23.44;39.00;99065.03;1723302;81;21207;-63
2021/03/16 17:01:01;;;;;;;332.30;130.45;;;;;;;23.36;38.98;99069.67;1724279;81;21175;-62
2021/03/16 17:03:28;;;;;;;316.30;124.12;;;;;;;23.27;39.01;99070.55;1726652;81;21191;-61
2021/03/16 17:05:55;;;;;;;278.73;114.70;;;;;;;23.19;39.07;99068.27;1725824;81;21224;-62
2021/03/16 17:08:22;;;;;;;268.30;113.52;;;;;;;23.14;39.15;99072.76;1726047;81;21176;-61
2021/03/16 17:10:49;;;;;;;273.40;109.70;;;;;;;23.11;39.18;99072.13;1725444;81;21220;-62
2021/03/16 17:13:17;;;;;;;249.25;105.52;;;;;;;23.06;39.21;99068.30;1726268;81;21258;-62
2021/03/16 17:15:47;;;;;;;246.15;103.90;;;;;;;23.00;39.23;99064.23;1715434;81;21234;-64
2021/03/16 17:18:14;;;;;;;220.63;93.22;;;;;;;22.93;39.29;99073.85;1726202;81;21211;-65
2021/03/16 17:20:42;;;;;;;214.65;89.92;;;;;;;22.88;39.36;99068.63;1724140;81;21069;-66
2021/03/16 17:23:11;;;;;;;198.02;84.55;;;;;;;22.87;39.43;99073.18;1723830;81;21132;-65
2021/03/16 17:25:38;;;;;;;188.93;80.32;;;;;;;22.84;39.48;99071.94;1727689;81;21225;-64
2021/03/16 17:28:07;;;;;;;180.12;80.07;;;;;;;22.82;39.49;99074.88;1724051;81;21715;-65
2021/03/16 17:30:34;;;;;;;180.42;77.27;;;;;;;22.76;39.53;99072.42;1724762;81;21132;-65
2021/03/16 17:33:03;;;;;;;173.02;73.52;;;;;;;22.71;39.60;99067.20;1716793;82;21263;-70
2021/03/16 17:35:30;;;;;;;158.85;68.33;;;;;;;22.67;39.69;99078.78;1707807;82;21219;-64
2021/03/16 17:37:57;;;;;;;146.45;64.58;;;;;;;22.67;39.74;99069.67;1698268;82;21223;-65
2021/03/16 17:40:24;;;;;;;138.50;61.02;;;;;;;22.67;39.78;99080.75;1708135;82;23512;-65
2021/03/16 17:42:50;;;;;;;132.47;58.33;;;;;;;22.64;39.79;99078.16;1703007;82;21595;-65
2021/03/16 17:45:17;;;;;;;131.12;56.65;;;;;;;22.60;39.84;99084.81;1718205;81;21148;-64
2021/03/16 17:47:44;;;;;;;119.62;52.93;;;;;;;22.56;39.91;99081.99;1718163;81;21089;-65
2021/03/16 17:50:12;;;;;;;109.40;49.67;;;;;;;22.55;39.97;99078.19;1719421;81;21080;-64
2021/03/16 17:52:39;;;;;;;114.28;48.85;;;;;;;22.55;40.03;99083.73;1716849;81;22190;-66
2021/03/16 17:55:07;;;;;;;106.70;49.08;;;;;;;22.55;40.05;99079.58;1716073;82;21464;-66
2021/03/16 17:57:34;;;;;;;92.67;46.05;;;;;;;22.53;40.06;99079.17;1723294;81;21139;-66
2021/03/16 18:00:00;;;;;;;102.42;42.38;;;;;;;22.49;40.09;99076.92;1721017;81;21196;-66
2021/03/16 18:02:26;;;;;;;91.78;41.85;;;;;;;22.45;40.16;99080.23;1722905;81;21140;-65
2021/03/16 18:04:53;;;;;;;78.50;37.67;;;;;;;22.43;40.24;99084.75;1722517;81;21203;-65
2021/03/16 18:07:20;;;;;;;80.00;37.98;;;;;;;22.43;40.28;99083.36;1717837;81;21671;-65
2021/03/16 18:09:47;;;;;;;75.30;34.78;;;;;;;22.45;40.32;99083.00;1718029;82;21144;-64
2021/03/16 18:12:14;;;;;;;71.45;35.00;;;;;;;22.43;40.31;99091.67;1714717;81;21187;-68
2021/03/16 18:14:40;;;;;;;71.60;34.25;;;;;;;22.39;40.38;99093.59;1720155;81;21157;-60
2021/03/16 18:17:07;;;;;;;67.90;32.40;;;;;;;22.36;40.45;99089.38;1718440;81;23488;-67
2021/03/16 18:19:34;;;;;;;60.65;30.70;;;;;;;22.34;40.54;99092.50;1717402;81;21712;-66
2021/03/16 18:22:00;;;;;;;59.67;30.32;;;;;;;22.35;40.63;99096.88;1719717;81;21159;-67
2021/03/16 18:24:26;;;;;;;53.13;27.07;;;;;;;22.37;40.65;99092.34;1721386;81;21175;-67
2021/03/16 18:26:53;;;;;;;55.25;27.35;;;;;;;22.35;40.63;99088.57;1721381;81;21258;-67
2021/03/16 18:29:19;;;;;;;55.33;26.40;;;;;;;22.32;40.65;99080.98;1715966;81;21226;-68
2021/03/16 18:31:46;;;;;;;42.73;23.55;;;;;;;22.28;40.72;99075.38;1716680;81;21164;-67
2021/03/16 18:34:12;;;;;;;45.85;22.25;;;;;;;22.26;40.78;99072.78;1729816;81;21187;-67
2021/03/16 18:36:38;;;;;;;41.25;22.80;;;;;;;;;;1738467;81;21155;-67
2021/03/16 18:39:06;;;;;;;39.67;21.25;;;;;;;;;;1732880;81;21239;-66